Time;durP1;ratioP1;P1;durP2;ratioP2;P2;SDS_P1;SDS_P2;PMS_P1;PMS_P2;Temp;Humidity;BMP_temperature;BMP_pressure;BME280_temperature;BME280_humidity;BME280_pressure;Samples;Min_cycle;Max_cycle;Signal;HPM_P1;HPM_P2
2024/02/26 00:00:08;;;;;;;14.23;12.63;;;5.80;99.90;;;;;;5070367;28;20200;-77
2024/02/26 00:02:38;;;;;;;14.70;13.05;;;5.80;99.90;;;;;;5076852;28;20231;-74
2024/02/26 00:05:06;;;;;;;16.00;13.60;;;5.80;99.90;;;;;;5070190;28;20741;-78
2024/02/26 00:07:33;;;;;;;18.40;14.15;;;5.70;99.90;;;;;;5066901;28;20612;-75
2024/02/26 00:10:00;;;;;;;15.23;12.82;;;5.60;99.90;;;;;;5074206;28;20211;-74
2024/02/26 00:12:27;;;;;;;18.10;14.27;;;5.60;99.90;;;;;;5064142;28;20196;-77
2024/02/26 00:14:57;;;;;;;18.75;13.10;;;5.60;99.90;;;;;;5067761;28;20268;-74
2024/02/26 00:17:25;;;;;;;15.93;14.23;;;5.50;99.90;;;;;;5070569;28;20250;-73
2024/02/26 00:19:54;;;;;;;16.10;12.48;;;5.50;99.90;;;;;;5069570;28;20283;-74
2024/02/26 00:22:21;;;;;;;18.27;14.43;;;5.50;99.90;;;;;;5062846;28;20259;-77
2024/02/26 00:24:48;;;;;;;14.90;12.15;;;5.50;99.90;;;;;;5068674;28;20200;-75
2024/02/26 00:27:15;;;;;;;15.80;12.98;;;5.50;99.90;;;;;;5063702;28;20230;-71
2024/02/26 00:29:42;;;;;;;17.67;13.93;;;5.50;99.90;;;;;;5070561;28;20265;-75
2024/02/26 00:32:09;;;;;;;19.70;14.57;;;5.50;99.90;;;;;;5072689;28;20204;-77
2024/02/26 00:34:36;;;;;;;17.25;14.45;;;5.50;99.90;;;;;;5057677;28;20270;-73
2024/02/26 00:37:05;;;;;;;16.92;14.30;;;5.50;99.90;;;;;;5062814;28;20251;-77
2024/02/26 00:39:32;;;;;;;16.42;13.70;;;5.50;99.90;;;;;;5056931;28;20249;-74
2024/02/26 00:41:59;;;;;;;14.85;13.05;;;5.50;99.90;;;;;;5066168;28;20216;-74
2024/02/26 00:44:26;;;;;;;17.73;14.55;;;5.50;99.90;;;;;;5056263;28;20224;-74
2024/02/26 00:46:53;;;;;;;16.38;13.70;;;5.50;99.90;;;;;;5068593;28;20246;-77
2024/02/26 00:49:21;;;;;;;16.65;12.45;;;5.40;99.90;;;;;;5063239;28;20204;-76
2024/02/26 00:51:47;;;;;;;19.70;14.85;;;5.40;99.90;;;;;;5057086;28;20207;-73
2024/02/26 00:54:16;;;;;;;15.27;12.15;;;5.30;99.90;;;;;;5055887;28;20223;-76
2024/02/26 00:56:43;;;;;;;14.68;11.57;;;5.30;99.90;;;;;;5064452;28;20199;-74
2024/02/26 00:59:10;;;;;;;17.02;14.07;;;5.30;99.90;;;;;;5071733;28;20207;-76
2024/02/26 01:01:37;;;;;;;15.95;13.52;;;5.40;99.90;;;;;;5070755;28;20232;-72
2024/02/26 01:04:04;;;;;;;13.95;11.60;;;5.40;99.90;;;;;;5058954;28;20280;-75
2024/02/26 01:06:31;;;;;;;14.27;12.20;;;5.40;99.90;;;;;;5063846;28;20278;-74
2024/02/26 01:08:58;;;;;;;16.02;12.45;;;5.40;99.90;;;;;;5063806;28;20229;-74
2024/02/26 01:11:27;;;;;;;17.30;14.52;;;5.40;99.90;;;;;;5058086;28;20249;-75
2024/02/26 01:13:56;;;;;;;17.25;15.00;;;5.30;99.90;;;;;;5056789;28;20224;-73
2024/02/26 01:16:23;;;;;;;16.77;12.98;;;5.30;99.90;;;;;;5062772;28;20677;-76
2024/02/26 01:18:50;;;;;;;16.65;12.82;;;5.20;99.90;;;;;;5066099;28;20200;-74
2024/02/26 01:21:17;;;;;;;18.20;14.90;;;5.20;99.90;;;;;;5064576;28;20231;-75
2024/02/26 01:23:44;;;;;;;15.15;13.02;;;5.20;99.90;;;;;;5065983;28;20219;-75
2024/02/26 01:26:12;;;;;;;15.00;12.85;;;5.10;99.90;;;;;;5063227;28;20199;-75
2024/02/26 01:28:39;;;;;;;17.67;14.63;;;5.00;99.90;;;;;;5058647;28;20250;-77
2024/02/26 01:31:08;;;;;;;16.13;14.40;;;5.00;99.90;;;;;;5062140;28;20229;-72
2024/02/26 01:33:35;;;;;;;17.60;15.05;;;5.00;99.90;;;;;;5057043;28;20304;-74
2024/02/26 01:36:01;;;;;;;16.45;13.43;;;5.00;99.90;;;;;;5065938;28;20261;-74
2024/02/26 01:38:31;;;;;;;17.93;14.47;;;5.00;99.90;;;;;;5059041;28;20571;-77
2024/02/26 01:40:58;;;;;;;21.33;16.15;;;5.00;99.90;;;;;;5069368;28;20457;-74
2024/02/26 01:43:25;;;;;;;18.52;13.20;;;5.00;99.90;;;;;;5065366;28;20219;-74
2024/02/26 01:45:54;;;;;;;20.77;17.70;;;5.00;99.90;;;;;;5065050;28;20233;-74
2024/02/26 01:48:21;;;;;;;14.93;13.18;;;5.00;99.90;;;;;;5055091;28;20196;-75
2024/02/26 01:50:48;;;;;;;15.07;12.85;;;5.00;99.90;;;;;;5066360;28;20200;-74
2024/02/26 01:53:16;;;;;;;18.58;14.48;;;5.00;99.90;;;;;;5060244;28;20224;-74
2024/02/26 01:55:43;;;;;;;15.57;11.95;;;5.00;99.90;;;;;;5060638;28;20245;-72
2024/02/26 01:58:11;;;;;;;16.10;13.38;;;5.00;99.90;;;;;;5055991;28;20200;-72
2024/02/26 02:00:38;;;;;;;20.92;14.85;;;5.00;99.90;;;;;;5057178;28;20204;-73
2024/02/26 02:03:07;;;;;;;14.77;12.68;;;5.00;99.90;;;;;;5062164;28;20281;-74
2024/02/26 02:05:38;;;;;;;17.58;15.00;;;5.00;99.90;;;;;;5057991;28;20216;-75
2024/02/26 02:08:06;;;;;;;13.13;10.27;;;5.10;99.90;;;;;;5071702;28;20665;-76
2024/02/26 02:10:33;;;;;;;13.93;12.10;;;5.00;99.90;;;;;;5064367;28;20646;-75
2024/02/26 02:13:00;;;;;;;14.93;11.95;;;5.00;99.90;;;;;;5069585;28;20278;-75
2024/02/26 02:15:27;;;;;;;13.73;11.43;;;4.90;99.90;;;;;;5069256;28;20394;-73
2024/02/26 02:17:53;;;;;;;16.90;13.38;;;4.90;99.90;;;;;;5068092;28;20211;-72
2024/02/26 02:20:33;;;;;;;13.30;10.65;;;4.90;99.90;;;;;;5071526;28;20260;-76
2024/02/26 02:23:00;;;;;;;16.73;13.50;;;5.00;99.90;;;;;;5064020;28;20254;-73
2024/02/26 02:25:27;;;;;;;18.30;14.55;;;4.90;99.90;;;;;;5074254;28;20196;-74
2024/02/26 02:27:55;;;;;;;13.80;11.15;;;4.80;99.90;;;;;;5069592;28;20204;-73
2024/02/26 02:30:24;;;;;;;19.30;14.77;;;4.80;99.90;;;;;;5066602;28;20200;-74
2024/02/26 02:32:51;;;;;;;15.90;13.55;;;4.70;99.90;;;;;;5069350;28;20241;-71
2024/02/26 02:35:18;;;;;;;16.13;13.20;;;4.70;99.90;;;;;;5070190;28;20211;-74
2024/02/26 02:37:47;;;;;;;15.35;12.30;;;4.70;99.90;;;;;;5067325;28;20670;-75
2024/02/26 02:40:14;;;;;;;15.52;12.02;;;4.80;99.90;;;;;;5060229;28;20297;-72
2024/02/26 02:42:41;;;;;;;17.13;13.18;;;4.70;99.90;;;;;;5061095;28;20232;-75
2024/02/26 02:45:09;;;;;;;19.75;13.88;;;4.80;99.90;;;;;;5062362;28;20711;-75
2024/02/26 02:47:37;;;;;;;18.52;13.02;;;4.80;99.90;;;;;;5068246;28;20195;-73
2024/02/26 02:50:05;;;;;;;18.80;13.57;;;4.80;99.90;;;;;;5060233;28;20291;-73
2024/02/26 02:52:32;;;;;;;14.95;13.00;;;4.80;99.90;;;;;;5068466;28;20292;-72
2024/02/26 02:55:00;;;;;;;17.48;12.30;;;4.80;99.90;;;;;;5069135;28;20253;-74
2024/02/26 02:57:27;;;;;;;19.60;12.93;;;4.80;99.90;;;;;;5066799;28;20612;-76
2024/02/26 02:59:54;;;;;;;15.77;12.82;;;4.80;99.90;;;;;;5067490;28;20347;-76
2024/02/26 03:02:21;;;;;;;18.88;14.73;;;4.80;99.90;;;;;;5070314;28;20227;-74
2024/02/26 03:04:48;;;;;;;13.38;11.70;;;4.80;99.90;;;;;;5072551;28;20556;-73
2024/02/26 03:07:15;;;;;;;15.50;12.75;;;4.80;99.90;;;;;;5056183;28;20234;-73
2024/02/26 03:09:43;;;;;;;15.15;12.90;;;4.70;99.90;;;;;;5059868;28;20208;-72
2024/02/26 03:12:11;;;;;;;14.55;11.55;;;4.70;99.90;;;;;;5064863;28;20207;-73
2024/02/26 03:14:38;;;;;;;17.83;13.18;;;4.60;99.90;;;;;;5070961;28;20218;-74
2024/02/26 03:17:06;;;;;;;17.13;12.40;;;4.60;99.90;;;;;;5071513;28;20199;-74
2024/02/26 03:19:33;;;;;;;15.82;12.45;;;4.60;99.90;;;;;;5056692;28;20192;-72
2024/02/26 03:22:00;;;;;;;16.10;13.55;;;4.60;99.90;;;;;;5064202;28;20254;-73
2024/02/26 03:24:27;;;;;;;18.58;13.05;;;4.70;99.90;;;;;;5059307;28;20618;-72
2024/02/26 03:26:54;;;;;;;15.55;12.52;;;4.60;99.90;;;;;;5064544;28;20591;-74
2024/02/26 03:29:23;;;;;;;14.93;13.25;;;4.60;99.90;;;;;;5060546;28;20542;-73
2024/02/26 03:31:50;;;;;;;13.77;11.35;;;4.60;99.90;;;;;;5058262;28;20654;-72
2024/02/26 03:34:18;;;;;;;18.92;13.90;;;4.60;99.90;;;;;;5063443;28;20355;-72
2024/02/26 03:36:45;;;;;;;17.45;13.80;;;4.50;99.90;;;;;;5071026;28;20218;-74
2024/02/26 03:39:12;;;;;;;19.70;14.48;;;4.50;99.90;;;;;;5056894;28;20204;-75
2024/02/26 03:41:39;;;;;;;18.75;14.27;;;4.50;99.90;;;;;;5061585;28;20207;-75
2024/02/26 03:44:08;;;;;;;20.25;15.90;;;4.50;99.90;;;;;;5054754;28;20290;-77
2024/02/26 03:46:37;;;;;;;22.98;15.75;;;4.50;99.90;;;;;;5062619;28;20610;-73
2024/02/26 03:49:04;;;;;;;20.95;15.45;;;4.50;99.90;;;;;;5055839;28;20203;-76
2024/02/26 03:51:32;;;;;;;19.20;13.77;;;4.50;99.90;;;;;;5061832;28;20208;-73
2024/02/26 03:53:59;;;;;;;19.67;14.80;;;4.50;99.90;;;;;;5068254;28;20250;-74
2024/02/26 03:56:27;;;;;;;15.85;12.85;;;4.50;99.90;;;;;;5057540;28;20204;-75
2024/02/26 03:58:54;;;;;;;16.30;13.57;;;4.50;99.90;;;;;;5060474;28;20208;-73
2024/02/26 04:01:21;;;;;;;17.52;14.07;;;4.50;99.90;;;;;;5060483;28;20208;-72
2024/02/26 04:03:50;;;;;;;20.80;15.00;;;4.50;99.90;;;;;;5052504;28;20303;-75
2024/02/26 04:06:17;;;;;;;20.83;15.35;;;4.60;99.90;;;;;;5054042;28;20249;-73
2024/02/26 04:08:44;;;;;;;16.88;13.38;;;4.60;99.90;;;;;;5061485;28;20204;-75
2024/02/26 04:11:12;;;;;;;21.60;15.82;;;4.60;99.90;;;;;;5058766;28;20258;-73
2024/02/26 04:13:39;;;;;;;19.52;14.02;;;4.50;99.90;;;;;;5063521;28;20223;-73
2024/02/26 04:16:06;;;;;;;17.25;12.60;;;4.50;99.90;;;;;;5063212;28;20219;-76
2024/02/26 04:18:34;;;;;;;15.23;12.07;;;4.50;99.90;;;;;;5058970;28;20200;-72
2024/02/26 04:21:02;;;;;;;16.30;13.02;;;4.50;99.90;;;;;;5068056;28;20577;-75
2024/02/26 04:23:29;;;;;;;17.50;13.73;;;4.50;99.90;;;;;;5056669;28;20224;-73
2024/02/26 04:25:56;;;;;;;19.42;14.68;;;4.50;99.90;;;;;;5069140;28;20610;-74
2024/02/26 04:28:25;;;;;;;18.05;14.85;;;4.50;99.90;;;;;;5063914;28;20207;-72
2024/02/26 04:30:52;;;;;;;14.90;12.68;;;4.50;99.90;;;;;;5063898;28;20200;-73
2024/02/26 04:33:19;;;;;;;19.25;15.10;;;4.50;99.90;;;;;;5066445;28;20212;-72
2024/02/26 04:35:46;;;;;;;16.55;13.02;;;4.50;99.90;;;;;;5057019;28;20216;-74
2024/02/26 04:38:14;;;;;;;15.27;12.50;;;4.60;99.90;;;;;;5065528;28;20269;-72
2024/02/26 04:40:41;;;;;;;20.58;16.65;;;4.50;99.90;;;;;;5056945;28;20204;-75
2024/02/26 04:43:09;;;;;;;20.67;16.05;;;4.40;99.90;;;;;;5057987;28;20250;-75
2024/02/26 04:45:36;;;;;;;17.25;13.38;;;4.60;99.90;;;;;;5068873;28;20728;-75
2024/02/26 04:48:03;;;;;;;17.63;13.07;;;4.40;99.90;;;;;;5071596;28;20249;-71
2024/02/26 04:50:30;;;;;;;19.45;14.73;;;4.40;99.90;;;;;;5059735;28;20203;-71
2024/02/26 04:52:58;;;;;;;19.73;13.95;;;4.40;99.90;;;;;;5059847;28;20674;-74
2024/02/26 04:55:26;;;;;;;15.73;11.82;;;4.50;99.90;;;;;;5068344;28;20204;-74
2024/02/26 04:57:53;;;;;;;18.25;15.15;;;4.50;99.90;;;;;;5067880;28;20254;-72
2024/02/26 05:00:20;;;;;;;15.90;12.48;;;4.50;99.90;;;;;;5070775;28;20213;-73
2024/02/26 05:02:47;;;;;;;17.25;13.10;;;4.50;99.90;;;;;;5070098;28;20247;-73
2024/02/26 05:05:14;;;;;;;15.20;12.15;;;4.50;99.90;;;;;;5084662;28;20203;-72
2024/02/26 05:07:43;;;;;;;19.90;13.77;;;4.50;99.90;;;;;;5087026;28;20200;-73
2024/02/26 05:10:12;;;;;;;18.15;13.20;;;4.50;99.90;;;;;;5080385;28;20249;-71
2024/02/26 05:12:42;;;;;;;17.52;14.07;;;4.60;99.90;;;;;;5078687;28;20215;-73
2024/02/26 05:15:10;;;;;;;18.95;13.98;;;4.60;99.90;;;;;;5076861;28;20215;-74
2024/02/26 05:17:37;;;;;;;16.73;12.68;;;4.60;99.90;;;;;;5073293;28;20203;-75
2024/02/26 05:20:08;;;;;;;18.15;12.82;;;4.50;99.90;;;;;;5071308;28;20200;-73
2024/02/26 05:22:35;;;;;;;17.55;13.05;;;4.60;99.90;;;;;;5068278;28;20606;-75
2024/02/26 05:25:03;;;;;;;17.50;12.77;;;4.60;99.90;;;;;;5067860;28;20216;-72
2024/02/26 05:27:30;;;;;;;17.83;13.57;;;4.60;99.90;;;;;;5072660;28;20743;-74
2024/02/26 05:29:59;;;;;;;14.70;11.57;;;4.60;99.90;;;;;;5071622;28;20214;-70
2024/02/26 05:32:26;;;;;;;16.35;11.57;;;4.70;99.90;;;;;;5066974;28;20252;-73
2024/02/26 05:34:53;;;;;;;18.90;13.35;;;4.70;99.90;;;;;;5063925;28;20200;-74
2024/02/26 05:37:20;;;;;;;18.08;14.15;;;4.70;99.90;;;;;;5069452;28;20200;-72
2024/02/26 05:39:47;;;;;;;15.82;12.65;;;4.70;99.90;;;;;;5058207;28;20203;-76
2024/02/26 05:42:14;;;;;;;18.33;12.48;;;4.70;99.90;;;;;;5064680;28;20261;-76
2024/02/26 05:44:41;;;;;;;17.38;13.15;;;4.70;99.90;;;;;;5062486;28;20236;-76
2024/02/26 05:47:09;;;;;;;17.98;14.88;;;4.70;99.90;;;;;;5065219;28;20257;-76
2024/02/26 05:49:37;;;;;;;17.33;12.55;;;4.70;99.90;;;;;;5059400;28;20200;-73
2024/02/26 05:52:05;;;;;;;20.25;13.88;;;4.70;99.90;;;;;;5060701;28;20203;-74
2024/02/26 05:54:32;;;;;;;17.70;12.82;;;4.70;99.90;;;;;;5065370;28;20558;-74
2024/02/26 05:56:59;;;;;;;20.30;14.48;;;4.70;99.90;;;;;;5064134;28;20658;-74
2024/02/26 05:59:26;;;;;;;22.98;16.17;;;4.70;99.90;;;;;;5064347;28;20240;-76
2024/02/26 06:01:53;;;;;;;20.00;15.27;;;4.60;99.90;;;;;;5062390;28;20270;-72
2024/02/26 06:04:21;;;;;;;23.92;17.55;;;4.60;99.90;;;;;;5061851;28;20634;-72
2024/02/26 06:06:49;;;;;;;24.75;16.30;;;4.60;99.90;;;;;;5053675;28;20744;-74
2024/02/26 06:09:16;;;;;;;23.02;15.55;;;4.60;99.90;;;;;;5054488;28;20200;-72
2024/02/26 06:11:43;;;;;;;25.00;16.92;;;4.60;99.90;;;;;;5063447;28;20658;-73
2024/02/26 06:14:11;;;;;;;22.27;15.52;;;4.60;99.90;;;;;;5058237;28;20289;-76
2024/02/26 06:16:38;;;;;;;22.00;17.92;;;4.50;99.90;;;;;;5060397;28;20203;-75
2024/02/26 06:19:14;;;;;;;26.70;17.13;;;4.60;99.90;;;;;;5067523;28;20658;-76
2024/02/26 06:21:43;;;;;;;26.55;17.88;;;4.60;99.90;;;;;;5068262;28;20594;-72
2024/02/26 06:24:10;;;;;;;31.85;21.00;;;4.60;99.90;;;;;;5062904;28;20230;-74
2024/02/26 06:26:36;;;;;;;32.53;21.63;;;4.60;99.90;;;;;;5068431;28;20199;-73
2024/02/26 06:29:03;;;;;;;28.40;18.67;;;4.60;99.90;;;;;;5069031;28;20203;-75
2024/02/26 06:31:30;;;;;;;33.72;19.80;;;4.60;99.90;;;;;;5065253;28;20199;-73
2024/02/26 06:33:57;;;;;;;32.22;20.38;;;4.60;99.90;;;;;;5062274;28;20224;-72
2024/02/26 06:36:25;;;;;;;36.50;22.38;;;4.80;99.90;;;;;;5061367;28;20195;-74
2024/02/26 06:38:54;;;;;;;28.77;20.98;;;4.70;99.90;;;;;;5063930;28;20200;-73
2024/02/26 06:41:27;;;;;;;37.78;23.75;;;4.70;99.90;;;;;;5073070;28;20204;-72
2024/02/26 06:43:54;;;;;;;34.90;20.88;;;4.70;99.90;;;;;;5062894;28;20682;-75
2024/02/26 06:46:21;;;;;;;36.10;23.50;;;4.70;99.90;;;;;;5057082;28;20280;-74
2024/02/26 06:48:49;;;;;;;32.70;22.83;;;4.80;99.90;;;;;;5068080;28;20640;-73
2024/02/26 06:51:16;;;;;;;32.10;20.45;;;4.80;99.90;;;;;;5058467;28;20321;-73
2024/02/26 06:53:43;;;;;;;36.63;23.52;;;4.80;99.90;;;;;;5064217;28;20216;-77
2024/02/26 06:56:12;;;;;;;33.38;19.23;;;4.80;99.90;;;;;;5062981;28;20230;-76
2024/02/26 06:58:38;;;;;;;37.33;24.55;;;4.90;99.90;;;;;;5065373;28;20211;-73
2024/02/26 07:01:08;;;;;;;34.20;21.80;;;4.90;99.90;;;;;;5059812;28;20207;-74
2024/02/26 07:03:35;;;;;;;33.38;21.88;;;5.00;99.90;;;;;;5064804;28;20230;-74
2024/02/26 07:06:03;;;;;;;32.00;21.10;;;5.00;99.90;;;;;;5069004;28;20269;-74
2024/02/26 07:08:29;;;;;;;28.50;18.20;;;5.00;99.90;;;;;;5060319;28;20204;-74
2024/02/26 07:10:56;;;;;;;30.23;18.63;;;5.10;99.90;;;;;;5058588;28;20192;-73
2024/02/26 07:13:24;;;;;;;31.75;19.13;;;5.10;99.90;;;;;;5068675;28;20458;-72
2024/02/26 07:15:51;;;;;;;50.45;24.95;;;5.10;99.90;;;;;;5061247;28;20304;-75
2024/02/26 07:18:18;;;;;;;32.63;20.75;;;5.10;99.90;;;;;;5062990;28;20261;-74
2024/02/26 07:20:45;;;;;;;30.98;21.67;;;5.10;99.90;;;;;;5069411;28;20203;-74
2024/02/26 07:23:12;;;;;;;34.05;23.05;;;5.20;99.90;;;;;;5057831;28;20717;-75
2024/02/26 07:25:39;;;;;;;36.67;23.13;;;5.30;99.90;;;;;;5059545;28;20199;-76
2024/02/26 07:28:06;;;;;;;28.50;19.88;;;5.40;99.90;;;;;;5062347;28;20204;-75
2024/02/26 07:30:35;;;;;;;31.58;20.60;;;5.40;99.90;;;;;;5067150;28;20203;-76
2024/02/26 07:33:02;;;;;;;33.63;20.85;;;5.40;99.90;;;;;;5062832;28;20276;-76
2024/02/26 07:35:29;;;;;;;42.45;25.17;;;5.40;99.90;;;;;;5057357;28;20199;-73
2024/02/26 07:37:57;;;;;;;31.75;21.95;;;5.40;99.90;;;;;;5062465;28;20251;-76
2024/02/26 07:40:24;;;;;;;36.25;23.67;;;5.50;99.90;;;;;;5062773;28;20208;-76
2024/02/26 07:42:50;;;;;;;35.88;22.27;;;5.60;99.90;;;;;;5065625;28;20218;-74
2024/02/26 07:45:19;;;;;;;34.80;21.70;;;5.60;99.90;;;;;;5075302;28;20204;-74
2024/02/26 07:47:48;;;;;;;33.22;21.90;;;5.70;99.90;;;;;;5061610;28;20204;-74
2024/02/26 07:50:15;;;;;;;37.33;25.08;;;5.60;99.90;;;;;;5059450;28;20208;-71
2024/02/26 07:52:42;;;;;;;33.35;21.50;;;5.60;99.90;;;;;;5068240;28;20223;-75
2024/02/26 07:55:09;;;;;;;33.08;21.05;;;5.70;99.90;;;;;;5067652;28;20196;-72
2024/02/26 07:57:36;;;;;;;30.73;21.17;;;5.70;99.90;;;;;;5062195;28;20261;-73
2024/02/26 08:00:07;;;;;;;37.17;23.92;;;5.70;99.90;;;;;;5058449;28;20631;-76
2024/02/26 08:02:34;;;;;;;35.53;23.95;;;5.80;99.90;;;;;;5065377;28;20375;-74
2024/02/26 08:05:03;;;;;;;42.42;24.55;;;5.90;99.90;;;;;;5065848;28;20306;-75
2024/02/26 08:07:30;;;;;;;30.80;19.85;;;5.90;99.90;;;;;;5063948;28;20238;-76
2024/02/26 08:09:57;;;;;;;33.80;20.60;;;6.00;99.90;;;;;;5066530;28;20200;-73
2024/02/26 08:12:24;;;;;;;31.45;20.65;;;6.10;99.90;;;;;;5066677;28;20290;-72
2024/02/26 08:14:51;;;;;;;35.70;21.77;;;6.00;99.90;;;;;;5060956;28;20204;-70
2024/02/26 08:17:18;;;;;;;28.30;19.83;;;6.10;99.90;;;;;;5060677;28;20286;-72
2024/02/26 08:19:45;;;;;;;39.42;25.30;;;6.20;99.90;;;;;;5072415;28;20207;-75
2024/02/26 08:22:16;;;;;;;33.72;20.75;;;6.20;99.90;;;;;;5058774;28;20628;-76
2024/02/26 08:24:43;;;;;;;35.35;23.42;;;6.30;99.90;;;;;;5063915;28;20220;-70
2024/02/26 08:27:10;;;;;;;36.60;21.45;;;6.60;99.90;;;;;;5064884;28;20227;-75
2024/02/26 08:29:37;;;;;;;33.90;20.90;;;6.80;99.90;;;;;;5057609;28;20208;-74
2024/02/26 08:32:05;;;;;;;33.60;22.23;;;6.80;99.90;;;;;;5066954;28;20212;-73
2024/02/26 08:34:32;;;;;;;37.58;22.50;;;7.00;99.90;;;;;;5065898;28;20269;-74
2024/02/26 08:36:59;;;;;;;27.10;19.85;;;7.00;99.90;;;;;;5065708;28;20217;-70
2024/02/26 08:39:28;;;;;;;31.00;19.73;;;7.10;99.90;;;;;;5061986;28;20269;-75
2024/02/26 08:41:55;;;;;;;31.33;20.67;;;7.20;99.90;;;;;;5066362;28;20203;-74
2024/02/26 08:44:22;;;;;;;33.35;22.70;;;7.20;99.90;;;;;;5073625;28;20269;-72
2024/02/26 08:46:50;;;;;;;31.00;20.92;;;7.20;99.90;;;;;;5060777;28;20253;-75
2024/02/26 08:49:17;;;;;;;36.15;22.67;;;7.10;99.90;;;;;;5064854;28;20197;-75
2024/02/26 08:51:45;;;;;;;31.75;22.73;;;7.10;99.90;;;;;;5060543;28;20434;-71
2024/02/26 08:54:12;;;;;;;35.67;25.77;;;7.20;99.90;;;;;;5059182;28;20436;-72
2024/02/26 08:56:40;;;;;;;33.33;25.08;;;7.30;99.90;;;;;;5059828;28;20427;-74
2024/02/26 08:59:07;;;;;;;25.10;18.88;;;7.40;99.90;;;;;;5071595;28;20208;-76
2024/02/26 09:01:34;;;;;;;29.13;20.13;;;7.50;99.90;;;;;;5057776;28;20303;-73
2024/02/26 09:04:01;;;;;;;30.23;19.45;;;7.50;99.90;;;;;;5068305;28;20234;-73
2024/02/26 09:06:29;;;;;;;28.30;18.90;;;7.50;99.90;;;;;;5062956;28;20607;-75
2024/02/26 09:08:56;;;;;;;30.17;21.42;;;7.60;99.90;;;;;;5065516;28;20199;-73
2024/02/26 09:11:23;;;;;;;28.77;19.38;;;7.60;99.90;;;;;;5066588;28;20235;-70
2024/02/26 09:13:51;;;;;;;29.45;19.77;;;7.60;99.90;;;;;;5063051;28;20232;-75
2024/02/26 09:16:18;;;;;;;34.63;23.58;;;7.60;99.90;;;;;;5071125;28;20218;-72
2024/02/26 09:18:47;;;;;;;25.08;18.55;;;7.70;99.90;;;;;;5070764;28;20207;-74
2024/02/26 09:21:14;;;;;;;27.55;18.67;;;7.70;99.90;;;;;;5065802;28;20212;-74
2024/02/26 09:23:41;;;;;;;26.77;18.63;;;7.80;99.90;;;;;;5065926;28;20281;-72
2024/02/26 09:26:09;;;;;;;21.77;17.30;;;7.70;99.90;;;;;;5058134;28;20208;-74
2024/02/26 09:28:37;;;;;;;24.45;17.30;;;7.80;99.90;;;;;;5066354;28;20224;-72
2024/02/26 09:31:06;;;;;;;26.20;18.90;;;7.90;99.90;;;;;;5063079;28;20214;-75
2024/02/26 09:33:33;;;;;;;26.95;19.25;;;8.00;99.90;;;;;;5060760;28;20243;-71
2024/02/26 09:36:01;;;;;;;19.83;14.57;;;8.00;99.90;;;;;;5067405;28;20249;-72
2024/02/26 09:38:29;;;;;;;22.17;15.60;;;8.20;99.90;;;;;;5057804;28;20239;-71
2024/02/26 09:40:57;;;;;;;19.98;14.23;;;8.30;99.90;;;;;;5058778;28;20239;-73
2024/02/26 09:43:24;;;;;;;25.98;16.52;;;8.40;99.90;;;;;;5060845;28;20227;-73
2024/02/26 09:45:52;;;;;;;20.70;14.30;;;8.50;99.90;;;;;;5067376;28;20203;-73
2024/02/26 09:48:23;;;;;;;23.33;15.60;;;8.50;99.90;;;;;;5066365;28;20196;-73
2024/02/26 09:50:50;;;;;;;23.58;16.40;;;8.50;99.90;;;;;;5070011;28;20231;-76
2024/02/26 09:53:19;;;;;;;21.30;14.52;;;8.60;99.90;;;;;;5064653;28;20219;-74
2024/02/26 09:55:46;;;;;;;17.77;13.25;;;8.70;99.90;;;;;;5067291;28;20227;-73
2024/02/26 09:58:18;;;;;;;18.20;14.10;;;9.00;99.90;;;;;;5071642;28;20337;-75
2024/02/26 10:00:52;;;;;;;17.35;13.45;;;9.20;99.90;;;;;;5061772;28;20573;-72
2024/02/26 10:03:26;;;;;;;19.30;13.40;;;9.30;99.90;;;;;;5069858;28;20230;-76
2024/02/26 10:05:55;;;;;;;18.58;13.98;;;9.40;99.90;;;;;;5062611;28;20258;-75
2024/02/26 10:08:23;;;;;;;15.93;12.63;;;9.60;99.90;;;;;;5063915;28;20203;-75
2024/02/26 10:10:51;;;;;;;16.50;11.98;;;9.80;99.90;;;;;;5059642;28;20200;-70
2024/02/26 10:13:19;;;;;;;17.52;11.93;;;9.80;99.90;;;;;;5063137;28;20219;-72
2024/02/26 10:15:46;;;;;;;16.75;11.93;;;10.00;99.90;;;;;;5054380;28;20261;-73
2024/02/26 10:18:15;;;;;;;18.65;12.25;;;10.10;99.90;;;;;;5070981;28;20229;-75
2024/02/26 10:20:45;;;;;;;16.48;12.30;;;10.30;99.90;;;;;;5063825;28;20215;-74
2024/02/26 10:23:12;;;;;;;15.98;11.55;;;10.40;99.90;;;;;;5073953;28;20235;-74
2024/02/26 10:25:55;;;;;;;14.75;11.02;;;10.50;99.90;;;;;;5072482;28;20227;-75
2024/02/26 10:28:22;;;;;;;15.18;10.68;;;10.60;99.90;;;;;;5073034;28;20226;-74
2024/02/26 10:30:49;;;;;;;15.63;10.38;;;10.70;99.90;;;;;;5077889;28;20258;-73
2024/02/26 10:33:16;;;;;;;12.75;10.05;;;10.70;99.90;;;;;;5075905;28;20219;-76
2024/02/26 10:35:48;;;;;;;12.90;9.38;;;10.60;99.90;;;;;;5070317;28;20204;-74
2024/02/26 10:38:20;;;;;;;13.80;11.52;;;10.60;99.90;;;;;;5068900;28;20613;-73
2024/02/26 10:40:47;;;;;;;22.30;15.15;;;10.60;99.90;;;;;;5067842;28;20199;-73
2024/02/26 10:43:14;;;;;;;13.23;10.23;;;10.70;99.90;;;;;;5066270;28;20261;-75
2024/02/26 10:45:42;;;;;;;10.95;9.40;;;10.80;99.90;;;;;;5063606;28;20215;-72
2024/02/26 10:48:12;;;;;;;12.25;9.13;;;11.00;99.90;;;;;;5061290;28;20203;-73
2024/02/26 10:50:40;;;;;;;13.23;10.63;;;11.20;99.90;;;;;;5057648;28;20236;-69
2024/02/26 10:53:19;;;;;;;11.70;9.60;;;11.40;99.90;;;;;;5065279;28;20277;-73
2024/02/26 10:55:49;;;;;;;11.55;9.55;;;11.40;99.90;;;;;;5070685;28;20503;-75
2024/02/26 10:58:18;;;;;;;10.48;8.68;;;11.30;99.90;;;;;;5065744;28;20575;-74
2024/02/26 11:00:47;;;;;;;15.68;11.15;;;11.30;99.90;;;;;;5055827;28;20583;-75
2024/02/26 11:03:17;;;;;;;12.25;10.77;;;11.20;99.90;;;;;;5070832;28;20224;-73
2024/02/26 11:05:45;;;;;;;11.48;9.82;;;11.20;99.90;;;;;;5062220;28;20256;-71
2024/02/26 11:08:15;;;;;;;9.55;8.45;;;11.20;99.90;;;;;;5072473;28;20199;-71
2024/02/26 11:10:43;;;;;;;15.63;9.77;;;11.40;99.90;;;;;;5073829;28;20238;-73
2024/02/26 11:13:13;;;;;;;14.35;11.15;;;11.30;99.90;;;;;;5069365;28;20227;-70
2024/02/26 11:15:41;;;;;;;11.15;9.02;;;11.20;99.90;;;;;;5069744;28;20633;-73
2024/02/26 11:18:09;;;;;;;23.83;10.20;;;11.30;99.90;;;;;;5069429;28;20204;-73
2024/02/26 11:20:41;;;;;;;12.70;9.57;;;11.30;99.90;;;;;;5068267;28;20287;-71
2024/02/26 11:23:10;;;;;;;14.15;9.80;;;11.30;99.90;;;;;;5069418;28;20227;-73
2024/02/26 11:25:40;;;;;;;11.70;10.32;;;11.20;99.90;;;;;;5070786;28;20211;-72
2024/02/26 11:28:12;;;;;;;13.20;10.68;;;11.10;99.90;;;;;;5069970;28;20639;-73
2024/02/26 11:30:42;;;;;;;13.43;11.32;;;11.10;99.90;;;;;;5066033;28;20211;-73
2024/02/26 11:33:12;;;;;;;11.15;9.48;;;11.20;99.90;;;;;;5059135;28;20273;-74
2024/02/26 11:35:39;;;;;;;13.35;11.20;;;11.30;99.90;;;;;;5055064;28;20199;-76
2024/02/26 11:38:07;;;;;;;13.35;11.00;;;11.40;99.90;;;;;;5063144;28;20262;-74
2024/02/26 11:40:39;;;;;;;13.32;9.00;;;11.50;99.90;;;;;;5061828;28;20200;-71
2024/02/26 11:43:07;;;;;;;15.52;11.23;;;11.50;99.90;;;;;;5066807;28;20250;-72
2024/02/26 11:45:52;;;;;;;13.88;10.90;;;11.50;99.90;;;;;;5061490;28;20226;-73
2024/02/26 11:48:24;;;;;;;13.95;11.50;;;11.50;99.90;;;;;;5067411;28;20211;-73
2024/02/26 11:50:51;;;;;;;15.52;10.85;;;11.50;99.90;;;;;;5062657;28;20200;-73
2024/02/26 11:53:22;;;;;;;15.57;12.63;;;11.30;99.90;;;;;;5065049;28;20219;-69
2024/02/26 11:56:10;;;;;;;13.80;10.45;;;11.40;99.90;;;;;;5058971;28;20678;-73
2024/02/26 11:58:40;;;;;;;15.18;12.45;;;11.40;99.90;;;;;;5064948;28;20200;-71
2024/02/26 12:01:27;;;;;;;13.55;11.38;;;11.40;99.90;;;;;;5063569;28;20214;-73
2024/02/26 12:03:55;;;;;;;15.40;11.90;;;11.40;99.90;;;;;;5063722;28;20243;-75
2024/02/26 12:06:22;;;;;;;14.98;11.57;;;11.40;99.90;;;;;;5058919;28;20771;-71
2024/02/26 12:08:51;;;;;;;12.10;9.55;;;11.40;99.90;;;;;;5059661;28;20199;-73
2024/02/26 12:11:18;;;;;;;16.48;10.40;;;11.40;99.90;;;;;;5062439;28;20199;-77
2024/02/26 12:13:49;;;;;;;14.00;9.75;;;11.40;99.90;;;;;;5068965;28;20223;-73
2024/02/26 12:16:36;;;;;;;15.30;11.60;;;11.40;99.90;;;;;;5056435;28;20766;-73
2024/02/26 12:19:06;;;;;;;15.55;10.48;;;11.60;99.90;;;;;;5061686;28;20631;-73
2024/02/26 12:21:35;;;;;;;13.98;10.48;;;11.60;99.90;;;;;;5053095;28;20238;-72
2024/02/26 12:24:13;;;;;;;13.32;10.15;;;11.60;99.90;;;;;;5062339;28;20314;-70
2024/02/26 12:26:40;;;;;;;13.20;9.52;;;11.80;99.90;;;;;;5054908;28;20273;-72
2024/02/26 12:29:10;;;;;;;12.65;10.10;;;11.90;99.90;;;;;;5068337;28;20207;-71
2024/02/26 12:31:38;;;;;;;11.40;9.65;;;12.00;99.90;;;;;;5059030;28;20572;-74
2024/02/26 12:34:06;;;;;;;15.73;11.00;;;12.10;99.90;;;;;;5063588;28;20228;-71
2024/02/26 12:36:34;;;;;;;14.70;10.60;;;12.10;99.90;;;;;;5067228;28;20421;-74
2024/02/26 12:39:05;;;;;;;14.27;9.27;;;12.10;99.90;;;;;;5060310;28;20265;-77